sensor_id;sensor_type;location;lat;lon;timestamp;temperature;humidity
38414;DHT22;24195;48.654;9.294;2022-09-09T00:00:17;13.90;99.90
38414;DHT22;24195;48.654;9.294;2022-09-09T00:03:04;13.90;99.90
38414;DHT22;24195;48.654;9.294;2022-09-09T00:05:44;13.90;99.90
38414;DHT22;24195;48.654;9.294;2022-09-09T00:08:22;13.90;99.90
38414;DHT22;24195;48.654;9.294;2022-09-09T00:11:00;13.90;99.90
38414;DHT22;24195;48.654;9.294;2022-09-09T00:13:46;13.90;99.90
38414;DHT22;24195;48.654;9.294;2022-09-09T00:21:25;14.00;99.90
38414;DHT22;24195;48.654;9.294;2022-09-09T00:23:55;13.90;99.90
38414;DHT22;24195;48.654;9.294;2022-09-09T00:29:14;14.00;99.90
38414;DHT22;24195;48.654;9.294;2022-09-09T00:31:48;13.90;99.90
38414;DHT22;24195;48.654;9.294;2022-09-09T00:34:23;13.90;99.90
38414;DHT22;24195;48.654;9.294;2022-09-09T00:36:52;13.90;99.90
38414;DHT22;24195;48.654;9.294;2022-09-09T00:39:32;14.00;99.90
38414;DHT22;24195;48.654;9.294;2022-09-09T00:42:12;14.00;99.90
38414;DHT22;24195;48.654;9.294;2022-09-09T00:45:02;14.10;99.90
38414;DHT22;24195;48.654;9.294;2022-09-09T00:47:53;14.00;99.90
38414;DHT22;24195;48.654;9.294;2022-09-09T00:50:41;13.90;99.90
38414;DHT22;24195;48.654;9.294;2022-09-09T00:56:18;14.00;99.90
38414;DHT22;24195;48.654;9.294;2022-09-09T00:59:00;14.10;99.90
38414;DHT22;24195;48.654;9.294;2022-09-09T01:01:32;14.10;99.90
38414;DHT22;24195;48.654;9.294;2022-09-09T01:03:57;14.10;99.90
38414;DHT22;24195;48.654;9.294;2022-09-09T01:06:33;14.00;99.90
38414;DHT22;24195;48.654;9.294;2022-09-09T01:09:21;14.00;99.90
38414;DHT22;24195;48.654;9.294;2022-09-09T01:27:53;13.90;99.90
38414;DHT22;24195;48.654;9.294;2022-09-09T01:30:21;14.00;99.90
38414;DHT22;24195;48.654;9.294;2022-09-09T01:32:54;13.90;99.90
38414;DHT22;24195;48.654;9.294;2022-09-09T01:35:27;14.00;99.90
38414;DHT22;24195;48.654;9.294;2022-09-09T01:37:55;14.00;99.90
38414;DHT22;24195;48.654;9.294;2022-09-09T01:40:25;14.00;99.90
38414;DHT22;24195;48.654;9.294;2022-09-09T01:42:51;14.00;99.90
38414;DHT22;24195;48.654;9.294;2022-09-09T01:45:17;14.00;99.90
38414;DHT22;24195;48.654;9.294;2022-09-09T01:47:43;13.90;99.90
38414;DHT22;24195;48.654;9.294;2022-09-09T01:50:11;13.90;99.90
38414;DHT22;24195;48.654;9.294;2022-09-09T01:52:38;13.90;99.90
38414;DHT22;24195;48.654;9.294;2022-09-09T01:55:05;13.80;99.90
38414;DHT22;24195;48.654;9.294;2022-09-09T02:00:10;13.80;99.90
38414;DHT22;24195;48.654;9.294;2022-09-09T02:02:58;13.80;99.90
38414;DHT22;24195;48.654;9.294;2022-09-09T02:08:20;13.70;99.90
38414;DHT22;24195;48.654;9.294;2022-09-09T02:11:14;13.70;99.90
38414;DHT22;24195;48.654;9.294;2022-09-09T02:13:46;13.70;99.90
38414;DHT22;24195;48.654;9.294;2022-09-09T02:16:18;13.80;99.90
38414;DHT22;24195;48.654;9.294;2022-09-09T02:19:09;13.80;99.90
38414;DHT22;24195;48.654;9.294;2022-09-09T02:21:38;13.80;99.90
38414;DHT22;24195;48.654;9.294;2022-09-09T02:24:07;13.90;99.90
38414;DHT22;24195;48.654;9.294;2022-09-09T02:26:39;13.80;99.90
38414;DHT22;24195;48.654;9.294;2022-09-09T02:29:09;13.70;99.90
38414;DHT22;24195;48.654;9.294;2022-09-09T02:31:49;13.60;99.90
38414;DHT22;24195;48.654;9.294;2022-09-09T02:34:17;13.50;99.90
38414;DHT22;24195;48.654;9.294;2022-09-09T02:36:46;13.50;99.90
38414;DHT22;24195;48.654;9.294;2022-09-09T02:39:12;13.40;99.90
38414;DHT22;24195;48.654;9.294;2022-09-09T02:41:40;13.30;99.90
38414;DHT22;24195;48.654;9.294;2022-09-09T02:44:16;13.20;99.90
38414;DHT22;24195;48.654;9.294;2022-09-09T02:50:22;13.30;99.90
38414;DHT22;24195;48.654;9.294;2022-09-09T02:58:07;13.30;99.90
38414;DHT22;24195;48.654;9.294;2022-09-09T03:00:34;13.30;99.90
38414;DHT22;24195;48.654;9.294;2022-09-09T03:03:05;13.20;99.90
38414;DHT22;24195;48.654;9.294;2022-09-09T03:05:30;13.30;99.90
38414;DHT22;24195;48.654;9.294;2022-09-09T03:07:57;13.20;99.90
38414;DHT22;24195;48.654;9.294;2022-09-09T03:10:23;13.20;99.90
38414;DHT22;24195;48.654;9.294;2022-09-09T03:12:48;13.30;99.90
38414;DHT22;24195;48.654;9.294;2022-09-09T03:15:14;13.40;99.90
38414;DHT22;24195;48.654;9.294;2022-09-09T03:17:40;13.40;99.90
38414;DHT22;24195;48.654;9.294;2022-09-09T03:20:06;13.40;99.90
38414;DHT22;24195;48.654;9.294;2022-09-09T03:22:34;13.30;99.90
38414;DHT22;24195;48.654;9.294;2022-09-09T03:24:59;13.30;99.90
38414;DHT22;24195;48.654;9.294;2022-09-09T03:27:25;13.30;99.90
38414;DHT22;24195;48.654;9.294;2022-09-09T03:29:51;13.30;99.90
38414;DHT22;24195;48.654;9.294;2022-09-09T03:32:17;13.20;99.90
38414;DHT22;24195;48.654;9.294;2022-09-09T03:34:43;13.20;99.90
38414;DHT22;24195;48.654;9.294;2022-09-09T03:37:09;13.20;99.90
38414;DHT22;24195;48.654;9.294;2022-09-09T03:39:35;13.20;99.90
38414;DHT22;24195;48.654;9.294;2022-09-09T03:42:00;13.20;99.90
38414;DHT22;24195;48.654;9.294;2022-09-09T03:44:29;13.10;99.90
38414;DHT22;24195;48.654;9.294;2022-09-09T03:46:55;13.20;99.90
38414;DHT22;24195;48.654;9.294;2022-09-09T03:49:21;13.20;99.90
38414;DHT22;24195;48.654;9.294;2022-09-09T03:51:48;13.20;99.90
38414;DHT22;24195;48.654;9.294;2022-09-09T03:54:13;13.30;99.90
38414;DHT22;24195;48.654;9.294;2022-09-09T03:56:39;13.30;99.90
38414;DHT22;24195;48.654;9.294;2022-09-09T03:59:07;13.30;99.90
38414;DHT22;24195;48.654;9.294;2022-09-09T04:01:34;13.30;99.90
38414;DHT22;24195;48.654;9.294;2022-09-09T04:03:59;13.30;99.90
38414;DHT22;24195;48.654;9.294;2022-09-09T04:06:26;13.40;99.90
38414;DHT22;24195;48.654;9.294;2022-09-09T04:08:52;13.50;99.90
38414;DHT22;24195;48.654;9.294;2022-09-09T04:11:18;13.50;99.90
38414;DHT22;24195;48.654;9.294;2022-09-09T04:13:46;13.50;99.90
38414;DHT22;24195;48.654;9.294;2022-09-09T04:16:12;13.40;99.90
38414;DHT22;24195;48.654;9.294;2022-09-09T04:18:41;13.30;99.90
38414;DHT22;24195;48.654;9.294;2022-09-09T04:21:19;13.30;99.90
38414;DHT22;24195;48.654;9.294;2022-09-09T04:23:44;13.40;99.90
38414;DHT22;24195;48.654;9.294;2022-09-09T04:26:10;13.50;99.90
38414;DHT22;24195;48.654;9.294;2022-09-09T04:28:37;13.50;99.90
38414;DHT22;24195;48.654;9.294;2022-09-09T04:31:15;13.60;99.90
38414;DHT22;24195;48.654;9.294;2022-09-09T04:33:51;13.60;99.90
38414;DHT22;24195;48.654;9.294;2022-09-09T04:36:18;13.50;99.90
38414;DHT22;24195;48.654;9.294;2022-09-09T04:38:45;13.50;99.90
38414;DHT22;24195;48.654;9.294;2022-09-09T04:41:11;13.60;99.90
38414;DHT22;24195;48.654;9.294;2022-09-09T04:43:50;13.60;99.90
38414;DHT22;24195;48.654;9.294;2022-09-09T06:14:23;15.20;99.90
38414;DHT22;24195;48.654;9.294;2022-09-09T06:16:50;15.20;99.90
38414;DHT22;24195;48.654;9.294;2022-09-09T06:19:16;15.40;99.90
38414;DHT22;24195;48.654;9.294;2022-09-09T06:21:57;15.30;99.90
38414;DHT22;24195;48.654;9.294;2022-09-09T06:24:24;15.50;99.90
38414;DHT22;24195;48.654;9.294;2022-09-09T06:26:49;15.50;99.90
38414;DHT22;24195;48.654;9.294;2022-09-09T06:29:15;15.60;99.90
38414;DHT22;24195;48.654;9.294;2022-09-09T06:31:40;15.60;99.90
38414;DHT22;24195;48.654;9.294;2022-09-09T06:34:12;15.60;99.90
38414;DHT22;24195;48.654;9.294;2022-09-09T06:36:52;15.50;99.90
38414;DHT22;24195;48.654;9.294;2022-09-09T06:39:17;15.70;99.90
38414;DHT22;24195;48.654;9.294;2022-09-09T06:41:45;15.80;99.90
38414;DHT22;24195;48.654;9.294;2022-09-09T06:44:15;15.90;99.90
38414;DHT22;24195;48.654;9.294;2022-09-09T06:47:06;15.90;99.90
38414;DHT22;24195;48.654;9.294;2022-09-09T06:49:32;16.00;99.90
38414;DHT22;24195;48.654;9.294;2022-09-09T06:52:07;16.10;99.90
38414;DHT22;24195;48.654;9.294;2022-09-09T06:54:34;16.30;99.90
38414;DHT22;24195;48.654;9.294;2022-09-09T06:57:02;16.40;99.90
38414;DHT22;24195;48.654;9.294;2022-09-09T06:59:28;16.40;99.90
38414;DHT22;24195;48.654;9.294;2022-09-09T07:01:56;16.50;99.90
38414;DHT22;24195;48.654;9.294;2022-09-09T07:04:22;16.60;99.90
38414;DHT22;24195;48.654;9.294;2022-09-09T07:06:47;16.60;99.90
38414;DHT22;24195;48.654;9.294;2022-09-09T07:09:14;16.60;99.90
38414;DHT22;24195;48.654;9.294;2022-09-09T07:11:43;16.80;99.90
38414;DHT22;24195;48.654;9.294;2022-09-09T07:14:10;16.90;99.90
38414;DHT22;24195;48.654;9.294;2022-09-09T07:16:40;17.10;99.90
38414;DHT22;24195;48.654;9.294;2022-09-09T07:19:06;17.30;99.90
38414;DHT22;24195;48.654;9.294;2022-09-09T07:21:32;17.50;99.90
38414;DHT22;24195;48.654;9.294;2022-09-09T07:23:58;17.60;99.90
38414;DHT22;24195;48.654;9.294;2022-09-09T07:26:27;17.60;99.90
38414;DHT22;24195;48.654;9.294;2022-09-09T07:28:53;17.50;99.90
38414;DHT22;24195;48.654;9.294;2022-09-09T07:31:28;17.70;99.90
38414;DHT22;24195;48.654;9.294;2022-09-09T07:33:56;17.90;99.90
38414;DHT22;24195;48.654;9.294;2022-09-09T07:36:33;18.10;99.90
38414;DHT22;24195;48.654;9.294;2022-09-09T07:39:07;18.00;99.90
38414;DHT22;24195;48.654;9.294;2022-09-09T07:41:40;17.90;99.90
38414;DHT22;24195;48.654;9.294;2022-09-09T07:44:07;17.90;99.90
38414;DHT22;24195;48.654;9.294;2022-09-09T07:46:33;17.90;99.90
38414;DHT22;24195;48.654;9.294;2022-09-09T07:49:02;17.70;99.90
38414;DHT22;24195;48.654;9.294;2022-09-09T07:51:33;17.60;99.90
38414;DHT22;24195;48.654;9.294;2022-09-09T07:54:15;17.60;99.90
38414;DHT22;24195;48.654;9.294;2022-09-09T07:56:57;17.60;99.90
38414;DHT22;24195;48.654;9.294;2022-09-09T07:59:23;18.10;99.90
38414;DHT22;24195;48.654;9.294;2022-09-09T08:02:12;18.30;99.90
38414;DHT22;24195;48.654;9.294;2022-09-09T08:04:38;18.70;99.90
38414;DHT22;24195;48.654;9.294;2022-09-09T08:07:04;19.00;99.90
38414;DHT22;24195;48.654;9.294;2022-09-09T08:09:30;19.30;99.90
38414;DHT22;24195;48.654;9.294;2022-09-09T08:11:58;19.10;99.90
38414;DHT22;24195;48.654;9.294;2022-09-09T08:14:23;19.00;99.90
38414;DHT22;24195;48.654;9.294;2022-09-09T08:17:02;19.00;99.90
38414;DHT22;24195;48.654;9.294;2022-09-09T08:19:28;18.90;99.90
38414;DHT22;24195;48.654;9.294;2022-09-09T08:22:02;18.80;99.90
38414;DHT22;24195;48.654;9.294;2022-09-09T08:24:28;18.90;99.90
38414;DHT22;24195;48.654;9.294;2022-09-09T08:26:54;19.20;99.90
38414;DHT22;24195;48.654;9.294;2022-09-09T08:29:22;19.10;99.90
38414;DHT22;24195;48.654;9.294;2022-09-09T08:31:53;18.90;99.90
38414;DHT22;24195;48.654;9.294;2022-09-09T08:34:20;18.70;99.90
38414;DHT22;24195;48.654;9.294;2022-09-09T08:36:47;18.70;99.90
38414;DHT22;24195;48.654;9.294;2022-09-09T08:39:17;18.80;99.90
38414;DHT22;24195;48.654;9.294;2022-09-09T08:47:16;19.30;99.90
38414;DHT22;24195;48.654;9.294;2022-09-09T08:52:36;19.60;99.90
38414;DHT22;24195;48.654;9.294;2022-09-09T08:57:50;19.60;99.90
38414;DHT22;24195;48.654;9.294;2022-09-09T09:00:17;20.10;99.90
38414;DHT22;24195;48.654;9.294;2022-09-09T09:03:09;20.20;99.90
38414;DHT22;24195;48.654;9.294;2022-09-09T09:05:51;20.00;99.90
38414;DHT22;24195;48.654;9.294;2022-09-09T09:08:31;19.70;99.90
38414;DHT22;24195;48.654;9.294;2022-09-09T09:11:00;19.80;99.90
38414;DHT22;24195;48.654;9.294;2022-09-09T09:16:33;19.90;99.90
38414;DHT22;24195;48.654;9.294;2022-09-09T09:19:03;19.80;99.90
38414;DHT22;24195;48.654;9.294;2022-09-09T09:21:39;19.80;99.90
38414;DHT22;24195;48.654;9.294;2022-09-09T09:24:20;19.70;99.90
38414;DHT22;24195;48.654;9.294;2022-09-09T09:26:49;19.80;99.90
38414;DHT22;24195;48.654;9.294;2022-09-09T09:29:17;20.30;99.90
38414;DHT22;24195;48.654;9.294;2022-09-09T09:31:55;20.50;99.90
38414;DHT22;24195;48.654;9.294;2022-09-09T09:34:23;20.70;99.90
38414;DHT22;24195;48.654;9.294;2022-09-09T09:36:53;20.90;99.90
38414;DHT22;24195;48.654;9.294;2022-09-09T09:39:33;21.10;99.90
38414;DHT22;24195;48.654;9.294;2022-09-09T09:42:23;21.50;99.90
38414;DHT22;24195;48.654;9.294;2022-09-09T09:44:49;21.40;99.90
38414;DHT22;24195;48.654;9.294;2022-09-09T09:47:20;21.20;99.90
38414;DHT22;24195;48.654;9.294;2022-09-09T09:49:57;21.10;99.80
38414;DHT22;24195;48.654;9.294;2022-09-09T09:52:34;21.60;99.30
38414;DHT22;24195;48.654;9.294;2022-09-09T09:55:17;20.80;92.70
38414;DHT22;24195;48.654;9.294;2022-09-09T09:57:43;20.60;93.40
38414;DHT22;24195;48.654;9.294;2022-09-09T10:00:38;21.10;94.40
38414;DHT22;24195;48.654;9.294;2022-09-09T10:03:37;21.30;93.90
38414;DHT22;24195;48.654;9.294;2022-09-09T10:06:05;21.50;95.80
38414;DHT22;24195;48.654;9.294;2022-09-09T10:08:45;22.10;97.10
38414;DHT22;24195;48.654;9.294;2022-09-09T10:19:31;21.80;96.30
38414;DHT22;24195;48.654;9.294;2022-09-09T10:22:19;21.90;97.40
38414;DHT22;24195;48.654;9.294;2022-09-09T10:27:27;22.30;96.60
38414;DHT22;24195;48.654;9.294;2022-09-09T10:30:28;22.40;96.40
38414;DHT22;24195;48.654;9.294;2022-09-09T10:36:23;22.20;95.20
38414;DHT22;24195;48.654;9.294;2022-09-09T10:39:04;22.10;96.20
38414;DHT22;24195;48.654;9.294;2022-09-09T10:42:33;22.20;94.80
38414;DHT22;24195;48.654;9.294;2022-09-09T10:45:00;22.20;94.50
38414;DHT22;24195;48.654;9.294;2022-09-09T10:48:13;22.60;95.90
38414;DHT22;24195;48.654;9.294;2022-09-09T10:50:45;22.30;95.20
38414;DHT22;24195;48.654;9.294;2022-09-09T10:53:30;22.60;95.90
38414;DHT22;24195;48.654;9.294;2022-09-09T10:56:06;22.80;94.70
38414;DHT22;24195;48.654;9.294;2022-09-09T10:58:54;22.70;95.10
38414;DHT22;24195;48.654;9.294;2022-09-09T11:01:31;23.00;95.20
38414;DHT22;24195;48.654;9.294;2022-09-09T11:04:06;22.90;92.30
38414;DHT22;24195;48.654;9.294;2022-09-09T11:06:40;23.00;93.30
38414;DHT22;24195;48.654;9.294;2022-09-09T11:09:11;23.50;92.30
38414;DHT22;24195;48.654;9.294;2022-09-09T11:11:42;23.90;91.40
38414;DHT22;24195;48.654;9.294;2022-09-09T11:14:29;24.30;91.40
38414;DHT22;24195;48.654;9.294;2022-09-09T11:17:10;23.80;91.50
38414;DHT22;24195;48.654;9.294;2022-09-09T11:19:47;22.80;91.90
38414;DHT22;24195;48.654;9.294;2022-09-09T11:23:01;22.30;93.60
38414;DHT22;24195;48.654;9.294;2022-09-09T11:25:38;21.30;95.10
38414;DHT22;24195;48.654;9.294;2022-09-09T11:42:28;18.10;99.90
38414;DHT22;24195;48.654;9.294;2022-09-09T11:44:54;17.70;99.90
38414;DHT22;24195;48.654;9.294;2022-09-09T11:47:26;17.50;99.90
38414;DHT22;24195;48.654;9.294;2022-09-09T11:50:27;17.40;99.90
38414;DHT22;24195;48.654;9.294;2022-09-09T11:56:11;18.30;99.90
38414;DHT22;24195;48.654;9.294;2022-09-09T11:58:44;18.80;99.90
38414;DHT22;24195;48.654;9.294;2022-09-09T12:01:33;19.30;99.90
38414;DHT22;24195;48.654;9.294;2022-09-09T12:07:18;19.30;99.90
38414;DHT22;24195;48.654;9.294;2022-09-09T12:12:33;19.20;98.90
38414;DHT22;24195;48.654;9.294;2022-09-09T12:15:01;20.00;98.30
38414;DHT22;24195;48.654;9.294;2022-09-09T12:17:31;20.50;96.00
38414;DHT22;24195;48.654;9.294;2022-09-09T12:20:23;21.20;96.40
38414;DHT22;24195;48.654;9.294;2022-09-09T12:28:39;20.80;94.60
38414;DHT22;24195;48.654;9.294;2022-09-09T12:34:23;21.20;94.10
38414;DHT22;24195;48.654;9.294;2022-09-09T12:37:02;21.40;93.70
38414;DHT22;24195;48.654;9.294;2022-09-09T12:39:34;21.50;91.90
38414;DHT22;24195;48.654;9.294;2022-09-09T12:42:01;21.30;90.60
38414;DHT22;24195;48.654;9.294;2022-09-09T12:44:29;21.60;91.90
38414;DHT22;24195;48.654;9.294;2022-09-09T12:46:56;22.10;90.80
38414;DHT22;24195;48.654;9.294;2022-09-09T12:49:29;21.90;90.80
38414;DHT22;24195;48.654;9.294;2022-09-09T12:51:56;21.40;91.20
38414;DHT22;24195;48.654;9.294;2022-09-09T12:54:22;21.30;93.20
38414;DHT22;24195;48.654;9.294;2022-09-09T12:56:49;21.50;91.90
38414;DHT22;24195;48.654;9.294;2022-09-09T12:59:24;21.20;92.70
38414;DHT22;24195;48.654;9.294;2022-09-09T13:01:58;21.40;92.80
38414;DHT22;24195;48.654;9.294;2022-09-09T13:04:28;21.70;93.10
38414;DHT22;24195;48.654;9.294;2022-09-09T13:06:54;21.40;92.80
38414;DHT22;24195;48.654;9.294;2022-09-09T13:09:30;21.30;93.80
38414;DHT22;24195;48.654;9.294;2022-09-09T13:11:56;22.30;92.50
38414;DHT22;24195;48.654;9.294;2022-09-09T13:14:30;22.90;90.50
38414;DHT22;24195;48.654;9.294;2022-09-09T13:17:00;22.60;89.70
38414;DHT22;24195;48.654;9.294;2022-09-09T13:19:38;21.60;91.20
38414;DHT22;24195;48.654;9.294;2022-09-09T13:22:34;21.10;92.10
38414;DHT22;24195;48.654;9.294;2022-09-09T13:27:56;20.80;92.30
38414;DHT22;24195;48.654;9.294;2022-09-09T13:30:37;20.90;92.50
38414;DHT22;24195;48.654;9.294;2022-09-09T13:35:44;21.90;91.70
38414;DHT22;24195;48.654;9.294;2022-09-09T13:38:14;22.50;90.50
38414;DHT22;24195;48.654;9.294;2022-09-09T13:40:40;22.70;90.60
38414;DHT22;24195;48.654;9.294;2022-09-09T13:43:21;22.80;90.30
38414;DHT22;24195;48.654;9.294;2022-09-09T13:46:05;22.80;90.80
38414;DHT22;24195;48.654;9.294;2022-09-09T13:48:57;22.90;90.60
38414;DHT22;24195;48.654;9.294;2022-09-09T13:51:51;22.90;90.80
38414;DHT22;24195;48.654;9.294;2022-09-09T13:54:21;23.00;90.60
38414;DHT22;24195;48.654;9.294;2022-09-09T13:56:59;23.20;90.80
38414;DHT22;24195;48.654;9.294;2022-09-09T13:59:50;23.30;90.50
38414;DHT22;24195;48.654;9.294;2022-09-09T14:02:37;23.20;89.40
38414;DHT22;24195;48.654;9.294;2022-09-09T14:05:14;23.40;87.00
38414;DHT22;24195;48.654;9.294;2022-09-09T14:07:42;23.20;86.90
38414;DHT22;24195;48.654;9.294;2022-09-09T14:10:08;23.30;86.30
38414;DHT22;24195;48.654;9.294;2022-09-09T14:12:34;24.20;86.60
38414;DHT22;24195;48.654;9.294;2022-09-09T14:15:12;23.70;84.70
38414;DHT22;24195;48.654;9.294;2022-09-09T14:18:09;23.80;84.70
38414;DHT22;24195;48.654;9.294;2022-09-09T14:20:44;24.50;84.10
38414;DHT22;24195;48.654;9.294;2022-09-09T14:23:17;23.80;84.20
38414;DHT22;24195;48.654;9.294;2022-09-09T14:25:44;23.00;85.40
38414;DHT22;24195;48.654;9.294;2022-09-09T14:28:12;23.80;85.00
38414;DHT22;24195;48.654;9.294;2022-09-09T14:30:40;24.40;79.30
38414;DHT22;24195;48.654;9.294;2022-09-09T14:33:23;24.20;79.90
38414;DHT22;24195;48.654;9.294;2022-09-09T14:36:02;23.90;81.90
38414;DHT22;24195;48.654;9.294;2022-09-09T14:38:33;23.80;81.30
38414;DHT22;24195;48.654;9.294;2022-09-09T14:41:00;23.50;80.80
38414;DHT22;24195;48.654;9.294;2022-09-09T14:43:28;23.20;83.30
38414;DHT22;24195;48.654;9.294;2022-09-09T14:45:55;23.60;83.40
38414;DHT22;24195;48.654;9.294;2022-09-09T14:48:21;22.50;82.20
38414;DHT22;24195;48.654;9.294;2022-09-09T14:50:47;22.00;84.20
38414;DHT22;24195;48.654;9.294;2022-09-09T14:53:12;22.00;83.80
38414;DHT22;24195;48.654;9.294;2022-09-09T14:55:39;22.40;85.20
38414;DHT22;24195;48.654;9.294;2022-09-09T14:58:05;22.70;84.40
38414;DHT22;24195;48.654;9.294;2022-09-09T15:00:31;22.80;83.80
38414;DHT22;24195;48.654;9.294;2022-09-09T15:02:57;22.90;83.70
38414;DHT22;24195;48.654;9.294;2022-09-09T15:05:25;23.20;82.50
38414;DHT22;24195;48.654;9.294;2022-09-09T15:07:50;23.00;81.50
38414;DHT22;24195;48.654;9.294;2022-09-09T15:10:16;22.80;83.10
38414;DHT22;24195;48.654;9.294;2022-09-09T15:12:48;22.70;83.80
38414;DHT22;24195;48.654;9.294;2022-09-09T15:15:15;22.90;81.80
38414;DHT22;24195;48.654;9.294;2022-09-09T15:17:40;22.90;81.50
38414;DHT22;24195;48.654;9.294;2022-09-09T15:20:06;22.70;81.90
38414;DHT22;24195;48.654;9.294;2022-09-09T15:22:32;22.30;81.50
38414;DHT22;24195;48.654;9.294;2022-09-09T15:25:01;22.00;82.50
38414;DHT22;24195;48.654;9.294;2022-09-09T15:27:27;21.90;84.30
38414;DHT22;24195;48.654;9.294;2022-09-09T15:29:53;22.00;83.60
38414;DHT22;24195;48.654;9.294;2022-09-09T15:32:18;22.10;84.10
38414;DHT22;24195;48.654;9.294;2022-09-09T15:34:59;22.10;84.30
38414;DHT22;24195;48.654;9.294;2022-09-09T15:37:25;22.10;84.90
38414;DHT22;24195;48.654;9.294;2022-09-09T15:39:51;22.30;83.80
38414;DHT22;24195;48.654;9.294;2022-09-09T15:42:16;22.70;83.00
38414;DHT22;24195;48.654;9.294;2022-09-09T15:44:47;22.80;82.30
38414;DHT22;24195;48.654;9.294;2022-09-09T15:47:13;22.80;82.70
38414;DHT22;24195;48.654;9.294;2022-09-09T15:49:38;22.50;83.30
38414;DHT22;24195;48.654;9.294;2022-09-09T15:52:09;22.10;83.90
38414;DHT22;24195;48.654;9.294;2022-09-09T15:54:36;21.90;85.10
38414;DHT22;24195;48.654;9.294;2022-09-09T15:57:05;21.50;84.90
38414;DHT22;24195;48.654;9.294;2022-09-09T15:59:31;21.30;85.10
38414;DHT22;24195;48.654;9.294;2022-09-09T16:01:58;21.20;87.00
38414;DHT22;24195;48.654;9.294;2022-09-09T16:04:25;21.00;86.80
38414;DHT22;24195;48.654;9.294;2022-09-09T16:07:03;20.80;87.00
38414;DHT22;24195;48.654;9.294;2022-09-09T16:09:29;20.80;86.90
38414;DHT22;24195;48.654;9.294;2022-09-09T16:11:56;20.70;86.60
38414;DHT22;24195;48.654;9.294;2022-09-09T16:14:23;20.60;88.60
38414;DHT22;24195;48.654;9.294;2022-09-09T16:16:50;20.50;87.80
38414;DHT22;24195;48.654;9.294;2022-09-09T16:19:16;20.40;87.80
38414;DHT22;24195;48.654;9.294;2022-09-09T16:21:44;20.40;88.40
38414;DHT22;24195;48.654;9.294;2022-09-09T16:24:18;20.40;89.30
38414;DHT22;24195;48.654;9.294;2022-09-09T16:26:49;20.40;89.00
38414;DHT22;24195;48.654;9.294;2022-09-09T16:29:35;20.40;89.80
38414;DHT22;24195;48.654;9.294;2022-09-09T16:32:01;20.40;90.10
38414;DHT22;24195;48.654;9.294;2022-09-09T16:34:26;20.80;90.10
38414;DHT22;24195;48.654;9.294;2022-09-09T16:36:52;21.20;88.50
38414;DHT22;24195;48.654;9.294;2022-09-09T16:39:20;21.10;88.60
38414;DHT22;24195;48.654;9.294;2022-09-09T16:41:47;20.80;89.00
38414;DHT22;24195;48.654;9.294;2022-09-09T16:44:14;20.80;89.30
38414;DHT22;24195;48.654;9.294;2022-09-09T16:46:42;20.80;89.30
38414;DHT22;24195;48.654;9.294;2022-09-09T16:49:13;20.70;89.20
38414;DHT22;24195;48.654;9.294;2022-09-09T16:51:50;20.60;89.70
38414;DHT22;24195;48.654;9.294;2022-09-09T16:54:18;20.50;90.00
38414;DHT22;24195;48.654;9.294;2022-09-09T16:56:46;20.30;90.40
38414;DHT22;24195;48.654;9.294;2022-09-09T16:59:15;20.30;90.70
38414;DHT22;24195;48.654;9.294;2022-09-09T17:01:42;20.20;91.10
38414;DHT22;24195;48.654;9.294;2022-09-09T17:04:18;20.10;91.20
38414;DHT22;24195;48.654;9.294;2022-09-09T17:06:50;20.00;91.30
38414;DHT22;24195;48.654;9.294;2022-09-09T17:09:20;19.90;91.50
38414;DHT22;24195;48.654;9.294;2022-09-09T17:11:46;19.80;91.60
38414;DHT22;24195;48.654;9.294;2022-09-09T17:14:15;19.70;91.90
38414;DHT22;24195;48.654;9.294;2022-09-09T17:16:41;19.60;92.10
38414;DHT22;24195;48.654;9.294;2022-09-09T17:19:07;19.40;92.10
38414;DHT22;24195;48.654;9.294;2022-09-09T17:21:37;19.30;92.50
38414;DHT22;24195;48.654;9.294;2022-09-09T17:24:05;19.10;93.10
38414;DHT22;24195;48.654;9.294;2022-09-09T17:26:33;19.00;93.60
38414;DHT22;24195;48.654;9.294;2022-09-09T17:29:00;19.00;94.10
38414;DHT22;24195;48.654;9.294;2022-09-09T17:31:27;18.80;94.50
38414;DHT22;24195;48.654;9.294;2022-09-09T17:33:54;18.70;94.70
38414;DHT22;24195;48.654;9.294;2022-09-09T17:36:22;18.70;94.60
38414;DHT22;24195;48.654;9.294;2022-09-09T17:38:49;18.70;94.50
38414;DHT22;24195;48.654;9.294;2022-09-09T17:41:17;18.70;94.60
38414;DHT22;24195;48.654;9.294;2022-09-09T17:44:00;18.70;94.80
38414;DHT22;24195;48.654;9.294;2022-09-09T17:46:28;18.70;95.00
38414;DHT22;24195;48.654;9.294;2022-09-09T17:48:59;18.60;95.40
38414;DHT22;24195;48.654;9.294;2022-09-09T17:51:27;18.60;95.30
38414;DHT22;24195;48.654;9.294;2022-09-09T17:53:56;18.60;95.50
38414;DHT22;24195;48.654;9.294;2022-09-09T17:56:24;18.40;96.00
38414;DHT22;24195;48.654;9.294;2022-09-09T17:58:51;18.40;96.00
38414;DHT22;24195;48.654;9.294;2022-09-09T18:01:19;18.30;96.00
38414;DHT22;24195;48.654;9.294;2022-09-09T18:03:46;18.30;96.10
38414;DHT22;24195;48.654;9.294;2022-09-09T18:06:21;18.20;96.30
38414;DHT22;24195;48.654;9.294;2022-09-09T18:08:56;18.10;96.60
38414;DHT22;24195;48.654;9.294;2022-09-09T18:11:24;18.10;96.70
38414;DHT22;24195;48.654;9.294;2022-09-09T18:13:51;18.00;96.90
38414;DHT22;24195;48.654;9.294;2022-09-09T18:16:18;18.00;97.10
38414;DHT22;24195;48.654;9.294;2022-09-09T18:18:45;18.00;97.40
38414;DHT22;24195;48.654;9.294;2022-09-09T18:21:11;18.00;97.60
38414;DHT22;24195;48.654;9.294;2022-09-09T18:23:56;17.90;97.90
38414;DHT22;24195;48.654;9.294;2022-09-09T18:26:27;17.90;98.20
38414;DHT22;24195;48.654;9.294;2022-09-09T18:29:11;17.90;98.40
38414;DHT22;24195;48.654;9.294;2022-09-09T18:31:57;17.80;98.60
38414;DHT22;24195;48.654;9.294;2022-09-09T18:34:41;17.80;98.90
38414;DHT22;24195;48.654;9.294;2022-09-09T18:37:10;17.70;99.20
38414;DHT22;24195;48.654;9.294;2022-09-09T18:39:35;17.70;99.40
38414;DHT22;24195;48.654;9.294;2022-09-09T18:42:01;17.70;99.50
38414;DHT22;24195;48.654;9.294;2022-09-09T18:44:48;17.70;99.60
38414;DHT22;24195;48.654;9.294;2022-09-09T18:47:13;17.60;99.80
38414;DHT22;24195;48.654;9.294;2022-09-09T18:49:42;17.50;99.90
38414;DHT22;24195;48.654;9.294;2022-09-09T18:52:12;17.60;99.90
38414;DHT22;24195;48.654;9.294;2022-09-09T18:55:10;17.60;99.90
38414;DHT22;24195;48.654;9.294;2022-09-09T18:57:51;17.60;99.90
38414;DHT22;24195;48.654;9.294;2022-09-09T19:00:19;17.60;99.90
38414;DHT22;24195;48.654;9.294;2022-09-09T19:02:51;17.70;99.90
38414;DHT22;24195;48.654;9.294;2022-09-09T19:05:19;17.60;99.90
38414;DHT22;24195;48.654;9.294;2022-09-09T19:07:45;17.60;99.90
38414;DHT22;24195;48.654;9.294;2022-09-09T19:10:11;17.50;99.90
38414;DHT22;24195;48.654;9.294;2022-09-09T19:12:40;17.50;99.90
38414;DHT22;24195;48.654;9.294;2022-09-09T19:15:20;17.60;99.90